Thunder radar more information blitzortung!


Radar de pluja more information rain snow radar


Visita la nostra xarxa de llocs de meteo:

Template documentation
and downloads

And another site



No particular awareness of the weather is required.    There are no Weather-warnings

Pagina Historial Weather Underground text

Diari Resum Setembre 23, 2017 Unitats:  Tant    Imperial   Mètric
« Previous Dia
SegĂźent Dia »
Diari Setmana Mensual Anual Personalitzada
  Maxima: Minima: Media:
Temperatura: 79.9 °F /  26.6 °C 58.3 °F /  14.6 °C 71.8 °F /  22.1 °C
Punt de rosada: 62.8 °F /  17.1 °C 55.4 °F /  13.0 °C 60.3 °F /  15.7 °C
Humitat: 90 % 53 % 68 %
Wind Speed: 12.7 mph /  20.4 km/h - 3.3 mph /  5.3 km/h
RĂ fegues de vent: 12.7 mph /  20.4 km/h - -
Vent:- - SSW
Pression baro: 30.2 in /  1022.9 hPa 30.1 in /  1018.8 hPa -
Precipitacions: 0 in /  0.0 mm    
Historical Graphs
 
 
Dades de taula per Setembre 23, 2017
Temps Temperatura Punt de rosada Pression baro Vent Wind Speed RĂ fegues de vent Humitat Rainfall Rate (Hourly)
00:03 62.8 °F /  17.1 °C 57.2 °F /  14.0 °C 30.2 in /  1022.9 hPa Calm     82 % 0 in /  0.0 mm
00:08 63 °F /  17.2 °C 57.4 °F /  14.1 °C 30.2 in /  1022.9 hPa Calm     82 % 0 in /  0.0 mm
04:10 58.3 °F /  14.6 °C 55.4 °F /  13.0 °C 30.2 in /  1022.9 hPa WNW 1 mph /  1.6 km/h 2 mph /  3.2 km/h 90 % 0 in /  0.0 mm
04:20 58.6 °F /  14.8 °C 55.8 °F /  13.2 °C 30.2 in /  1022.9 hPa WNW 2 mph /  3.2 km/h 2 mph /  3.2 km/h 90 % 0 in /  0.0 mm
04:30 59 °F /  15.0 °C 56.1 °F /  13.4 °C 30.2 in /  1022.9 hPa Calm   2 mph /  3.2 km/h 90 % 0 in /  0.0 mm
04:40 59.7 °F /  15.4 °C 56.8 °F /  13.8 °C 30.2 in /  1022.9 hPa Calm   1 mph /  1.6 km/h 90 % 0 in /  0.0 mm
04:50 60.6 °F /  15.9 °C 57.7 °F /  14.3 °C 30.2 in /  1022.9 hPa Calm   1 mph /  1.6 km/h 90 % 0 in /  0.0 mm
05:00 61.7 °F /  16.5 °C 58.1 °F /  14.5 °C 30.2 in /  1022.9 hPa SSE 1 mph /  1.6 km/h 3 mph /  4.8 km/h 88 % 0 in /  0.0 mm
05:10 63.3 °F /  17.4 °C 58.6 °F /  14.8 °C 30.2 in /  1022.9 hPa Calm   3 mph /  4.8 km/h 85 % 0 in /  0.0 mm
05:20 64.4 °F /  18.0 °C 58.8 °F /  14.9 °C 30.2 in /  1022.9 hPa NE 1 mph /  1.6 km/h 2 mph /  3.2 km/h 82 % 0 in /  0.0 mm
05:30 66.6 °F /  19.2 °C 59.7 °F /  15.4 °C 30.2 in /  1022.9 hPa Calm   2 mph /  3.2 km/h 79 % 0 in /  0.0 mm
05:40 66.7 °F /  19.3 °C 59.4 °F /  15.2 °C 30.2 in /  1022.9 hPa NW 1 mph /  1.6 km/h 2 mph /  3.2 km/h 77 % 0 in /  0.0 mm
05:50 66.9 °F /  19.4 °C 59.2 °F /  15.1 °C 30.2 in /  1022.9 hPa NNW 1 mph /  1.6 km/h 2 mph /  3.2 km/h 76 % 0 in /  0.0 mm
06:00 67.5 °F /  19.7 °C 59.4 °F /  15.2 °C 30.2 in /  1022.9 hPa NNE 1 mph /  1.6 km/h 4 mph /  6.4 km/h 75 % 0 in /  0.0 mm
06:10 67.8 °F /  19.9 °C 59.5 °F /  15.3 °C 30.2 in /  1022.9 hPa NE 3 mph /  4.8 km/h 3 mph /  4.8 km/h 75 % 0 in /  0.0 mm
06:20 68.2 °F /  20.1 °C 59.2 °F /  15.1 °C 30.2 in /  1022.9 hPa NE 3 mph /  4.8 km/h 3 mph /  4.8 km/h 73 % 0 in /  0.0 mm
06:30 68.2 °F /  20.1 °C 58.8 °F /  14.9 °C 30.2 in /  1022.9 hPa NE 2 mph /  3.2 km/h 4 mph /  6.4 km/h 72 % 0 in /  0.0 mm
06:40 68.9 °F /  20.5 °C 59.5 °F /  15.3 °C 30.2 in /  1022.9 hPa NNE 2 mph /  3.2 km/h 4 mph /  6.4 km/h 72 % 0 in /  0.0 mm
06:50 68.9 °F /  20.5 °C 58.6 °F /  14.8 °C 30.2 in /  1022.9 hPa NE 3 mph /  4.8 km/h 4 mph /  6.4 km/h 70 % 0 in /  0.0 mm
07:00 69.8 °F /  21.0 °C 59.5 °F /  15.3 °C 30.2 in /  1022.9 hPa NE 3 mph /  4.8 km/h 3 mph /  4.8 km/h 70 % 0 in /  0.0 mm
08:00 73.6 °F /  23.1 °C 60.6 °F /  15.9 °C 30.2 in /  1021.9 hPa East 2 mph /  3.2 km/h 3 mph /  4.8 km/h 64 % 0 in /  0.0 mm
12:09 71.1 °F /  21.7 °C 60.4 °F /  15.8 °C 30.2 in /  1022.9 hPa West 2 mph /  3.2 km/h 2.2 mph /  3.5 km/h 69 % 0 in /  0.0 mm
12:14 70.7 °F /  21.5 °C 59.5 °F /  15.3 °C 30.2 in /  1022.9 hPa NNE 2.3 mph /  3.7 km/h 2.3 mph /  3.7 km/h 68 % 0 in /  0.0 mm
12:19 70.9 °F /  21.6 °C 59.7 °F /  15.4 °C 30.2 in /  1022.9 hPa NNE 1.6 mph /  2.6 km/h 1.6 mph /  2.6 km/h 68 % 0 in /  0.0 mm
12:24 71.8 °F /  22.1 °C 59.7 °F /  15.4 °C 30.2 in /  1022.9 hPa NE 1.2 mph /  1.9 km/h 1.2 mph /  1.9 km/h 66 % 0 in /  0.0 mm
12:29 72.3 °F /  22.4 °C 59.9 °F /  15.5 °C 30.2 in /  1022.9 hPa SE 2.9 mph /  4.7 km/h 2.9 mph /  4.7 km/h 65 % 0 in /  0.0 mm
12:34 73 °F /  22.8 °C 59.7 °F /  15.4 °C 30.2 in /  1021.9 hPa SSE 2.3 mph /  3.7 km/h 2.3 mph /  3.7 km/h 63 % 0 in /  0.0 mm
12:39 72.5 °F /  22.5 °C 59.2 °F /  15.1 °C 30.2 in /  1021.9 hPa East 4.6 mph /  7.4 km/h 4.6 mph /  7.4 km/h 63 % 0 in /  0.0 mm
12:44 73.6 °F /  23.1 °C 61.2 °F /  16.2 °C 30.2 in /  1021.9 hPa ESE 2.3 mph /  3.7 km/h 2.3 mph /  3.7 km/h 65 % 0 in /  0.0 mm
13:07 75.9 °F /  24.4 °C 62.1 °F /  16.7 °C 30.2 in /  1021.9 hPa SW 4.6 mph /  7.4 km/h 4.6 mph /  7.4 km/h 62 % 0 in /  0.0 mm
13:12 76.5 °F /  24.7 °C 61.5 °F /  16.4 °C 30.2 in /  1021.9 hPa South 4.6 mph /  7.4 km/h 4.6 mph /  7.4 km/h 60 % 0 in /  0.0 mm
13:17 77.4 °F /  25.2 °C 61.9 °F /  16.6 °C 30.2 in /  1020.9 hPa SW 4.9 mph /  7.9 km/h 4.9 mph /  7.9 km/h 59 % 0 in /  0.0 mm
13:22 77.2 °F /  25.1 °C 61.7 °F /  16.5 °C 30.2 in /  1020.9 hPa SSW 4.6 mph /  7.4 km/h 4.6 mph /  7.4 km/h 59 % 0 in /  0.0 mm
13:27 77.5 °F /  25.3 °C 61.5 °F /  16.4 °C 30.2 in /  1020.9 hPa SSE 2.4 mph /  3.9 km/h 2.4 mph /  3.9 km/h 58 % 0 in /  0.0 mm
13:32 76.8 °F /  24.9 °C 61 °F /  16.1 °C 30.2 in /  1021.9 hPa South 3.5 mph /  5.6 km/h 3.5 mph /  5.6 km/h 58 % 0 in /  0.0 mm
13:37 77.7 °F /  25.4 °C 61.9 °F /  16.6 °C 30.2 in /  1021.9 hPa SSE 2.2 mph /  3.5 km/h 2.2 mph /  3.5 km/h 58 % 0 in /  0.0 mm
13:42 78.1 °F /  25.6 °C 62.1 °F /  16.7 °C 30.2 in /  1021.9 hPa WNW 3.5 mph /  5.6 km/h 3.5 mph /  5.6 km/h 58 % 0 in /  0.0 mm
13:47 78.1 °F /  25.6 °C 62.1 °F /  16.7 °C 30.2 in /  1021.9 hPa SW 4.6 mph /  7.4 km/h 4.6 mph /  7.4 km/h 58 % 0 in /  0.0 mm
13:52 78.1 °F /  25.6 °C 61.5 °F /  16.4 °C 30.2 in /  1021.9 hPa SW 5.8 mph /  9.3 km/h 5.8 mph /  9.3 km/h 57 % 0 in /  0.0 mm
13:57 77.9 °F /  25.5 °C 59.4 °F /  15.2 °C 30.2 in /  1021.9 hPa South 6.9 mph /  11.1 km/h 6.9 mph /  11.1 km/h 53 % 0 in /  0.0 mm
14:02 78.3 °F /  25.7 °C 60.8 °F /  16.0 °C 30.2 in /  1020.9 hPa South 2.3 mph /  3.7 km/h 2.3 mph /  3.7 km/h 55 % 0 in /  0.0 mm
14:07 79.3 °F /  26.3 °C 62.2 °F /  16.8 °C 30.2 in /  1020.9 hPa SSW 4.6 mph /  7.4 km/h 4.6 mph /  7.4 km/h 56 % 0 in /  0.0 mm
14:12 79 °F /  26.1 °C 61.3 °F /  16.3 °C 30.2 in /  1020.9 hPa WSW 4.6 mph /  7.4 km/h 4.6 mph /  7.4 km/h 55 % 0 in /  0.0 mm
14:17 78.8 °F /  26.0 °C 61.3 °F /  16.3 °C 30.2 in /  1020.9 hPa WSW 3.1 mph /  5.0 km/h 3.1 mph /  5.0 km/h 55 % 0 in /  0.0 mm
14:22 78.3 °F /  25.7 °C 60.3 °F /  15.7 °C 30.2 in /  1020.9 hPa SSE 1.2 mph /  1.9 km/h   54 % 0 in /  0.0 mm
14:27 78.1 °F /  25.6 °C 59.5 °F /  15.3 °C 30.2 in /  1020.9 hPa NNE 5.8 mph /  9.3 km/h 5.8 mph /  9.3 km/h 53 % 0 in /  0.0 mm
14:33 76.5 °F /  24.7 °C 59.2 °F /  15.1 °C 30.2 in /  1020.9 hPa SE 4.9 mph /  7.9 km/h 4.9 mph /  7.9 km/h 55 % 0 in /  0.0 mm
14:38 75.7 °F /  24.3 °C 58.8 °F /  14.9 °C 30.2 in /  1020.9 hPa ESE 8.1 mph /  13.0 km/h 8.1 mph /  13.0 km/h 56 % 0 in /  0.0 mm
14:43 75.2 °F /  24.0 °C 58.8 °F /  14.9 °C 30.2 in /  1020.9 hPa SSE 7.1 mph /  11.4 km/h 7.1 mph /  11.4 km/h 57 % 0 in /  0.0 mm
14:48 75.7 °F /  24.3 °C 59.9 °F /  15.5 °C 30.2 in /  1020.9 hPa East 4.6 mph /  7.4 km/h 4.6 mph /  7.4 km/h 58 % 0 in /  0.0 mm
14:58 75 °F /  23.9 °C 60.6 °F /  15.9 °C 30.2 in /  1020.9 hPa East 10.4 mph /  16.7 km/h 10.4 mph /  16.7 km/h 61 % 0 in /  0.0 mm
15:03 74.8 °F /  23.8 °C 61 °F /  16.1 °C 30.1 in /  1019.9 hPa SSE 5.8 mph /  9.3 km/h 5.8 mph /  9.3 km/h 62 % 0 in /  0.0 mm
15:08 75.7 °F /  24.3 °C 61.3 °F /  16.3 °C 30.1 in /  1019.9 hPa SSW 4.6 mph /  7.4 km/h 4.6 mph /  7.4 km/h 61 % 0 in /  0.0 mm
15:13 76.3 °F /  24.6 °C 61.3 °F /  16.3 °C 30.1 in /  1019.9 hPa ESE 2.3 mph /  3.7 km/h 2.3 mph /  3.7 km/h 60 % 0 in /  0.0 mm
15:18 77.5 °F /  25.3 °C 62.1 °F /  16.7 °C 30.1 in /  1019.9 hPa SW 6.9 mph /  11.1 km/h 6.9 mph /  11.1 km/h 59 % 0 in /  0.0 mm
15:23 78.4 °F /  25.8 °C 61.9 °F /  16.6 °C 30.1 in /  1019.9 hPa WSW 3.5 mph /  5.6 km/h 3.5 mph /  5.6 km/h 57 % 0 in /  0.0 mm
15:28 79 °F /  26.1 °C 62.4 °F /  16.9 °C 30.1 in /  1019.9 hPa SSW 5.8 mph /  9.3 km/h 5.8 mph /  9.3 km/h 57 % 0 in /  0.0 mm
15:33 79.9 °F /  26.6 °C 62.8 °F /  17.1 °C 30.1 in /  1019.9 hPa SSW 5.8 mph /  9.3 km/h 5.9 mph /  9.5 km/h 56 % 0 in /  0.0 mm
15:38 79.7 °F /  26.5 °C 62.1 °F /  16.7 °C 30.1 in /  1019.9 hPa WSW 12.7 mph /  20.4 km/h 12.7 mph /  20.4 km/h 55 % 0 in /  0.0 mm
15:43 79 °F /  26.1 °C 61.3 °F /  16.3 °C 30.1 in /  1019.9 hPa West 6.9 mph /  11.1 km/h 6.9 mph /  11.1 km/h 55 % 0 in /  0.0 mm
15:48 79.7 °F /  26.5 °C 62.1 °F /  16.7 °C 30.1 in /  1019.9 hPa SW 7.1 mph /  11.4 km/h 7.1 mph /  11.4 km/h 55 % 0 in /  0.0 mm
15:49 79.7 °F /  26.5 °C 62.1 °F /  16.7 °C 30.1 in /  1019.9 hPa South 6.9 mph /  11.1 km/h 6.9 mph /  11.1 km/h 55 % 0 in /  0.0 mm
15:54 79 °F /  26.1 °C 61.3 °F /  16.3 °C 30.1 in /  1019.9 hPa SW 6.9 mph /  11.1 km/h 6.9 mph /  11.1 km/h 55 % 0 in /  0.0 mm
15:59 77.2 °F /  25.1 °C 59.7 °F /  15.4 °C 30.1 in /  1019.9 hPa SSW 10.4 mph /  16.7 km/h 10.4 mph /  16.7 km/h 55 % 0 in /  0.0 mm
16:04 77 °F /  25.0 °C 59.5 °F /  15.3 °C 30.1 in /  1019.9 hPa SW 9.2 mph /  14.8 km/h 9.2 mph /  14.8 km/h 55 % 0 in /  0.0 mm
16:09 77.7 °F /  25.4 °C 60.8 °F /  16.0 °C 30.1 in /  1019.9 hPa WSW 6.2 mph /  10.0 km/h 6.2 mph /  10.0 km/h 56 % 0 in /  0.0 mm
16:14 77.5 °F /  25.3 °C 60.6 °F /  15.9 °C 30.1 in /  1019.9 hPa SW 4.6 mph /  7.4 km/h 4.6 mph /  7.4 km/h 56 % 0 in /  0.0 mm
16:19 77.7 °F /  25.4 °C 60.8 °F /  16.0 °C 30.1 in /  1019.9 hPa South 4.6 mph /  7.4 km/h 4.6 mph /  7.4 km/h 56 % 0 in /  0.0 mm
16:24 77.2 °F /  25.1 °C 60.3 °F /  15.7 °C 30.1 in /  1019.9 hPa SSW 8.1 mph /  13.0 km/h 8.1 mph /  13.0 km/h 56 % 0 in /  0.0 mm
16:29 76.8 °F /  24.9 °C 60.4 °F /  15.8 °C 30.1 in /  1019.9 hPa WSW 6.9 mph /  11.1 km/h 6.9 mph /  11.1 km/h 57 % 0 in /  0.0 mm
16:34 77 °F /  25.0 °C 60.1 °F /  15.6 °C 30.1 in /  1019.9 hPa SW 6.4 mph /  10.3 km/h 6.4 mph /  10.3 km/h 56 % 0 in /  0.0 mm
16:39 75.7 °F /  24.3 °C 59.4 °F /  15.2 °C 30.1 in /  1019.9 hPa SSW 8.1 mph /  13.0 km/h 8.1 mph /  13.0 km/h 57 % 0 in /  0.0 mm
16:44 76.3 °F /  24.6 °C 60.4 °F /  15.8 °C 30.1 in /  1019.9 hPa SW 2.3 mph /  3.7 km/h 2.3 mph /  3.7 km/h 58 % 0 in /  0.0 mm
16:49 76.6 °F /  24.8 °C 60.8 °F /  16.0 °C 30.1 in /  1019.9 hPa WSW 2.3 mph /  3.7 km/h 2.3 mph /  3.7 km/h 58 % 0 in /  0.0 mm
16:54 76.8 °F /  24.9 °C 61 °F /  16.1 °C 30.1 in /  1019.9 hPa SSW 5.8 mph /  9.3 km/h 5.8 mph /  9.3 km/h 58 % 0 in /  0.0 mm
16:59 76.5 °F /  24.7 °C 60.6 °F /  15.9 °C 30.1 in /  1019.9 hPa SW 7.4 mph /  11.9 km/h 7.4 mph /  11.9 km/h 58 % 0 in /  0.0 mm
17:04 76.6 °F /  24.8 °C 60.8 °F /  16.0 °C 30.1 in /  1019.9 hPa SW 2.3 mph /  3.7 km/h 2.3 mph /  3.7 km/h 58 % 0 in /  0.0 mm
17:09 76.6 °F /  24.8 °C 60.8 °F /  16.0 °C 30.1 in /  1019.9 hPa ESE 6.9 mph /  11.1 km/h 6.9 mph /  11.1 km/h 58 % 0 in /  0.0 mm
17:14 76.3 °F /  24.6 °C 60.4 °F /  15.8 °C 30.1 in /  1019.9 hPa SSW 8.1 mph /  13.0 km/h 8.1 mph /  13.0 km/h 58 % 0 in /  0.0 mm
17:19 76.5 °F /  24.7 °C 60.6 °F /  15.9 °C 30.1 in /  1019.9 hPa South 5.8 mph /  9.3 km/h 5.8 mph /  9.3 km/h 58 % 0 in /  0.0 mm
17:24 76.6 °F /  24.8 °C 60.8 °F /  16.0 °C 30.1 in /  1019.9 hPa SSW 3.5 mph /  5.6 km/h 3.5 mph /  5.6 km/h 58 % 0 in /  0.0 mm
17:29 76.3 °F /  24.6 °C 61 °F /  16.1 °C 30.1 in /  1019.9 hPa SSW 4.6 mph /  7.4 km/h 4.6 mph /  7.4 km/h 59 % 0 in /  0.0 mm
17:34 76.1 °F /  24.5 °C 60.6 °F /  15.9 °C 30.1 in /  1019.9 hPa SSW 7.1 mph /  11.4 km/h 7.1 mph /  11.4 km/h 59 % 0 in /  0.0 mm
17:39 75.6 °F /  24.2 °C 60.6 °F /  15.9 °C 30.1 in /  1019.9 hPa SW 4.6 mph /  7.4 km/h 4.6 mph /  7.4 km/h 60 % 0 in /  0.0 mm
17:44 75.7 °F /  24.3 °C 61 °F /  16.1 °C 30.1 in /  1019.9 hPa WSW 4.6 mph /  7.4 km/h 4.6 mph /  7.4 km/h 60 % 0 in /  0.0 mm
17:49 75.7 °F /  24.3 °C 60.4 °F /  15.8 °C 30.1 in /  1019.9 hPa West 3.8 mph /  6.1 km/h 3.8 mph /  6.1 km/h 59 % 0 in /  0.0 mm
17:54 75.7 °F /  24.3 °C 61 °F /  16.1 °C 30.1 in /  1019.9 hPa SW 5.8 mph /  9.3 km/h 5.8 mph /  9.3 km/h 60 % 0 in /  0.0 mm
17:59 75.7 °F /  24.3 °C 61 °F /  16.1 °C 30.1 in /  1019.9 hPa SW 6.9 mph /  11.1 km/h 6.9 mph /  11.1 km/h 60 % 0 in /  0.0 mm
18:04 75.6 °F /  24.2 °C 61.2 °F /  16.2 °C 30.1 in /  1019.9 hPa South 5.8 mph /  9.3 km/h 5.8 mph /  9.3 km/h 61 % 0 in /  0.0 mm
18:09 75 °F /  23.9 °C 61.2 °F /  16.2 °C 30.1 in /  1019.9 hPa South 4.6 mph /  7.4 km/h 4.6 mph /  7.4 km/h 62 % 0 in /  0.0 mm
18:14 74.7 °F /  23.7 °C 61.2 °F /  16.2 °C 30.1 in /  1019.9 hPa SSE 2 mph /  3.2 km/h 2 mph /  3.2 km/h 63 % 0 in /  0.0 mm
18:19 74.7 °F /  23.7 °C 61.2 °F /  16.2 °C 30.1 in /  1019.9 hPa WNW 6 mph /  9.7 km/h 6 mph /  9.7 km/h 63 % 0 in /  0.0 mm
18:24 74.3 °F /  23.5 °C 61 °F /  16.1 °C 30.1 in /  1019.9 hPa SW 2.9 mph /  4.7 km/h 2.9 mph /  4.7 km/h 63 % 0 in /  0.0 mm
18:29 73.8 °F /  23.2 °C 60.4 °F /  15.8 °C 30.1 in /  1019.9 hPa WSW 4.6 mph /  7.4 km/h 4.6 mph /  7.4 km/h 63 % 0 in /  0.0 mm
18:34 73.2 °F /  22.9 °C 60.3 °F /  15.7 °C 30.1 in /  1019.9 hPa WSW 5.6 mph /  9.0 km/h 5.6 mph /  9.0 km/h 64 % 0 in /  0.0 mm
18:39 73 °F /  22.8 °C 60.1 °F /  15.6 °C 30.1 in /  1019.9 hPa WNW 4.6 mph /  7.4 km/h 4.6 mph /  7.4 km/h 64 % 0 in /  0.0 mm
18:44 73 °F /  22.8 °C 60.6 °F /  15.9 °C 30.1 in /  1019.9 hPa SW 5.8 mph /  9.3 km/h 5.8 mph /  9.3 km/h 65 % 0 in /  0.0 mm
18:49 73 °F /  22.8 °C 60.6 °F /  15.9 °C 30.1 in /  1019.9 hPa WSW 3.6 mph /  5.8 km/h 3.6 mph /  5.8 km/h 65 % 0 in /  0.0 mm
18:54 72.9 °F /  22.7 °C 60.4 °F /  15.8 °C 30.1 in /  1019.9 hPa SW 2 mph /  3.2 km/h   65 % 0 in /  0.0 mm
18:59 72.9 °F /  22.7 °C 60.4 °F /  15.8 °C 30.1 in /  1019.9 hPa SW 4.6 mph /  7.4 km/h 4.6 mph /  7.4 km/h 65 % 0 in /  0.0 mm
19:04 72.7 °F /  22.6 °C 60.6 °F /  15.9 °C 30.1 in /  1018.8 hPa SSW 2.3 mph /  3.7 km/h 2.3 mph /  3.7 km/h 66 % 0 in /  0.0 mm
19:09 72.7 °F /  22.6 °C 60.6 °F /  15.9 °C 30.1 in /  1018.8 hPa SW 2.4 mph /  3.9 km/h 2.4 mph /  3.9 km/h 66 % 0 in /  0.0 mm
19:14 72.5 °F /  22.5 °C 60.4 °F /  15.8 °C 30.1 in /  1018.8 hPa SW 3.1 mph /  5.0 km/h 3.1 mph /  5.0 km/h 66 % 0 in /  0.0 mm
19:19 72.1 °F /  22.3 °C 60.3 °F /  15.7 °C 30.2 in /  1020.9 hPa SW 2.6 mph /  4.2 km/h 2.6 mph /  4.2 km/h 66 % 0 in /  0.0 mm
19:24 72 °F /  22.2 °C 60.1 °F /  15.6 °C 30.2 in /  1020.9 hPa WSW 3.1 mph /  5.0 km/h 3.1 mph /  5.0 km/h 66 % 0 in /  0.0 mm
19:29 71.8 °F /  22.1 °C 59.7 °F /  15.4 °C 30.2 in /  1020.9 hPa West 3.5 mph /  5.6 km/h 3.5 mph /  5.6 km/h 66 % 0 in /  0.0 mm
19:34 71.6 °F /  22.0 °C 60.1 °F /  15.6 °C 30.1 in /  1019.9 hPa SSW 2.3 mph /  3.7 km/h 2.3 mph /  3.7 km/h 67 % 0 in /  0.0 mm
19:39 71.2 °F /  21.8 °C 60.1 °F /  15.6 °C 30.1 in /  1019.9 hPa WSW 2.6 mph /  4.2 km/h 2.6 mph /  4.2 km/h 68 % 0 in /  0.0 mm
19:44 71.1 °F /  21.7 °C 60.4 °F /  15.8 °C 30.1 in /  1019.9 hPa SW 2.4 mph /  3.9 km/h   69 % 0 in /  0.0 mm
19:49 70.7 °F /  21.5 °C 60.1 °F /  15.6 °C 30.1 in /  1019.9 hPa SW 3.5 mph /  5.6 km/h 3.5 mph /  5.6 km/h 69 % 0 in /  0.0 mm
19:54 70.5 °F /  21.4 °C 59.9 °F /  15.5 °C 30.1 in /  1019.9 hPa SW 2.3 mph /  3.7 km/h 2.3 mph /  3.7 km/h 69 % 0 in /  0.0 mm
19:59 70.3 °F /  21.3 °C 60.1 °F /  15.6 °C 30.1 in /  1019.9 hPa WSW 1.2 mph /  1.9 km/h   70 % 0 in /  0.0 mm
20:04 70.3 °F /  21.3 °C 60.1 °F /  15.6 °C 30.1 in /  1019.9 hPa WSW 1.2 mph /  1.9 km/h   70 % 0 in /  0.0 mm
20:09 70.2 °F /  21.2 °C 59.9 °F /  15.5 °C 30.1 in /  1019.9 hPa SW 3.5 mph /  5.6 km/h 3.5 mph /  5.6 km/h 70 % 0 in /  0.0 mm
20:14 70.2 °F /  21.2 °C 59.9 °F /  15.5 °C 30.1 in /  1019.9 hPa WSW 2.3 mph /  3.7 km/h 2.3 mph /  3.7 km/h 70 % 0 in /  0.0 mm
20:19 70 °F /  21.1 °C 60.1 °F /  15.6 °C 30.1 in /  1019.9 hPa WSW 2.3 mph /  3.7 km/h 2.3 mph /  3.7 km/h 71 % 0 in /  0.0 mm
20:24 69.8 °F /  21.0 °C 60.1 °F /  15.6 °C 30.1 in /  1019.9 hPa SW 2.3 mph /  3.7 km/h 2.3 mph /  3.7 km/h 71 % 0 in /  0.0 mm
20:29 69.6 °F /  20.9 °C 59.7 °F /  15.4 °C 30.1 in /  1019.9 hPa SW 2.3 mph /  3.7 km/h 2.3 mph /  3.7 km/h 71 % 0 in /  0.0 mm
20:34 69.4 °F /  20.8 °C 60.1 °F /  15.6 °C 30.1 in /  1019.9 hPa WSW 2.3 mph /  3.7 km/h 2.3 mph /  3.7 km/h 72 % 0 in /  0.0 mm
20:39 69.3 °F /  20.7 °C 59.7 °F /  15.4 °C 30.1 in /  1019.9 hPa SW 3.1 mph /  5.0 km/h 3.1 mph /  5.0 km/h 72 % 0 in /  0.0 mm
20:44 69.3 °F /  20.7 °C 60.3 °F /  15.7 °C 30.1 in /  1019.9 hPa WSW 2 mph /  3.2 km/h 2 mph /  3.2 km/h 73 % 0 in /  0.0 mm
20:49 69.1 °F /  20.6 °C 60.1 °F /  15.6 °C 30.1 in /  1019.9 hPa WSW 2.3 mph /  3.7 km/h 2.3 mph /  3.7 km/h 73 % 0 in /  0.0 mm
20:54 68.9 °F /  20.5 °C 59.9 °F /  15.5 °C 30.1 in /  1019.9 hPa WSW 2.3 mph /  3.7 km/h 2.3 mph /  3.7 km/h 73 % 0 in /  0.0 mm
20:59 68.9 °F /  20.5 °C 59.9 °F /  15.5 °C 30.1 in /  1019.9 hPa WSW 2.3 mph /  3.7 km/h 2.3 mph /  3.7 km/h 73 % 0 in /  0.0 mm
21:04 68.7 °F /  20.4 °C 59.7 °F /  15.4 °C 30.2 in /  1020.9 hPa WSW 2.3 mph /  3.7 km/h 2.3 mph /  3.7 km/h 73 % 0 in /  0.0 mm
21:09 68.7 °F /  20.4 °C 60.1 °F /  15.6 °C 30.2 in /  1020.9 hPa SW 2.3 mph /  3.7 km/h 2.3 mph /  3.7 km/h 74 % 0 in /  0.0 mm
21:14 68.5 °F /  20.3 °C 59.9 °F /  15.5 °C 30.2 in /  1020.9 hPa WSW 2.3 mph /  3.7 km/h 2.3 mph /  3.7 km/h 74 % 0 in /  0.0 mm
21:19 68.4 °F /  20.2 °C 60.1 °F /  15.6 °C 30.2 in /  1020.9 hPa SW 2.3 mph /  3.7 km/h 2.3 mph /  3.7 km/h 75 % 0 in /  0.0 mm
21:24 68.2 °F /  20.1 °C 60.1 °F /  15.6 °C 30.2 in /  1020.9 hPa SW 1.2 mph /  1.9 km/h 1.2 mph /  1.9 km/h 75 % 0 in /  0.0 mm
21:29 68.2 °F /  20.1 °C 60.1 °F /  15.6 °C 30.2 in /  1020.9 hPa SW 2.3 mph /  3.7 km/h 2.3 mph /  3.7 km/h 75 % 0 in /  0.0 mm
21:34 67.8 °F /  19.9 °C 60.1 °F /  15.6 °C 30.2 in /  1020.9 hPa WSW 2.3 mph /  3.7 km/h 2.3 mph /  3.7 km/h 76 % 0 in /  0.0 mm
21:39 67.6 °F /  19.8 °C 59.7 °F /  15.4 °C 30.2 in /  1020.9 hPa SW 2.3 mph /  3.7 km/h 2.4 mph /  3.9 km/h 76 % 0 in /  0.0 mm
21:44 67.6 °F /  19.8 °C 59.7 °F /  15.4 °C 30.2 in /  1020.9 hPa SW 2.3 mph /  3.7 km/h 2.3 mph /  3.7 km/h 76 % 0 in /  0.0 mm
21:49 67.5 °F /  19.7 °C 60.1 °F /  15.6 °C 30.2 in /  1021.9 hPa SW 2.6 mph /  4.2 km/h 2.6 mph /  4.2 km/h 77 % 0 in /  0.0 mm
21:54 67.3 °F /  19.6 °C 59.7 °F /  15.4 °C 30.2 in /  1021.9 hPa SW 2.3 mph /  3.7 km/h 2.3 mph /  3.7 km/h 77 % 0 in /  0.0 mm
21:59 67.3 °F /  19.6 °C 59.7 °F /  15.4 °C 30.2 in /  1021.9 hPa WSW 2.3 mph /  3.7 km/h 2.3 mph /  3.7 km/h 77 % 0 in /  0.0 mm
22:04 67.1 °F /  19.5 °C 59.5 °F /  15.3 °C 30.2 in /  1021.9 hPa SW 2.3 mph /  3.7 km/h 2.3 mph /  3.7 km/h 77 % 0 in /  0.0 mm
22:09 67.1 °F /  19.5 °C 59.5 °F /  15.3 °C 30.2 in /  1021.9 hPa WSW 2.3 mph /  3.7 km/h 2.3 mph /  3.7 km/h 77 % 0 in /  0.0 mm
22:14 66.9 °F /  19.4 °C 59.7 °F /  15.4 °C 30.2 in /  1021.9 hPa WSW 1.6 mph /  2.6 km/h 1.6 mph /  2.6 km/h 78 % 0 in /  0.0 mm
22:19 66.9 °F /  19.4 °C 59.7 °F /  15.4 °C 30.2 in /  1021.9 hPa WSW 1.2 mph /  1.9 km/h 1.2 mph /  1.9 km/h 78 % 0 in /  0.0 mm
22:24 66.7 °F /  19.3 °C 60.1 °F /  15.6 °C 30.2 in /  1021.9 hPa WSW 1.2 mph /  1.9 km/h   79 % 0 in /  0.0 mm
22:29 66.7 °F /  19.3 °C 60.1 °F /  15.6 °C 30.2 in /  1021.9 hPa Calm     79 % 0 in /  0.0 mm
22:34 66.6 °F /  19.2 °C 59.7 °F /  15.4 °C 30.2 in /  1021.9 hPa WSW 0.9 mph /  1.4 km/h   79 % 0 in /  0.0 mm
22:39 66.7 °F /  19.3 °C 60.4 °F /  15.8 °C 30.2 in /  1021.9 hPa WSW 1.2 mph /  1.9 km/h   80 % 0 in /  0.0 mm
22:44 66.6 °F /  19.2 °C 60.3 °F /  15.7 °C 30.2 in /  1021.9 hPa Calm     80 % 0 in /  0.0 mm
22:49 66.6 °F /  19.2 °C 60.3 °F /  15.7 °C 30.2 in /  1021.9 hPa Calm     80 % 0 in /  0.0 mm
22:54 66.4 °F /  19.1 °C 60.4 °F /  15.8 °C 30.2 in /  1021.9 hPa Calm     81 % 0 in /  0.0 mm
22:59 66.4 °F /  19.1 °C 60.4 °F /  15.8 °C 30.2 in /  1021.9 hPa Calm     81 % 0 in /  0.0 mm
23:04 66.4 °F /  19.1 °C 60.4 °F /  15.8 °C 30.2 in /  1021.9 hPa Calm     81 % 0 in /  0.0 mm
23:09 66.2 °F /  19.0 °C 60.3 °F /  15.7 °C 30.2 in /  1021.9 hPa Calm     81 % 0 in /  0.0 mm
23:14 66.2 °F /  19.0 °C 60.3 °F /  15.7 °C 30.2 in /  1021.9 hPa Calm     81 % 0 in /  0.0 mm
23:19 66.2 °F /  19.0 °C 60.4 °F /  15.8 °C 30.2 in /  1020.9 hPa Calm     82 % 0 in /  0.0 mm
23:24 66.2 °F /  19.0 °C 60.4 °F /  15.8 °C 30.2 in /  1020.9 hPa Calm     82 % 0 in /  0.0 mm
23:29 65.8 °F /  18.8 °C 60.4 °F /  15.8 °C 30.2 in /  1020.9 hPa Calm     83 % 0 in /  0.0 mm
23:35 65.8 °F /  18.8 °C 60.4 °F /  15.8 °C 30.2 in /  1021.9 hPa Calm     83 % 0 in /  0.0 mm
23:39 65.7 °F /  18.7 °C 60.4 °F /  15.8 °C 30.2 in /  1021.9 hPa Calm     83 % 0 in /  0.0 mm
23:45 65.7 °F /  18.7 °C 60.4 °F /  15.8 °C 30.2 in /  1021.9 hPa Calm     83 % 0 in /  0.0 mm
23:50 65.5 °F /  18.6 °C 60.3 °F /  15.7 °C 30.2 in /  1021.9 hPa WSW 0.9 mph /  1.4 km/h   83 % 0 in /  0.0 mm
23:55 65.5 °F /  18.6 °C 60.4 °F /  15.8 °C 30.2 in /  1021.9 hPa Calm     84 % 0 in /  0.0 mm
Meteo Sesrovires
Elogis d' Weather Underground - 3.25 mb

Guio original per  Jim McMurry - jmcmurry@mwt.net Adaptat per a la plantilla per  Wim van der Kuil - Leuven-Template.eu

Trobareu la nostra informacio del temps tambe a:

Weather Underground

AWEKAS